sensor_id;sensor_type;location;lat;lon;timestamp;temperature;humidity
27439;DHT22;14887;51.252;7.470;2023-02-28T00:00:18;-1.90;99.90
27439;DHT22;14887;51.252;7.470;2023-02-28T00:02:44;-1.80;99.90
27439;DHT22;14887;51.252;7.470;2023-02-28T00:05:12;-1.70;99.90
27439;DHT22;14887;51.252;7.470;2023-02-28T00:07:38;-1.70;99.90
27439;DHT22;14887;51.252;7.470;2023-02-28T00:10:06;-1.70;99.90
27439;DHT22;14887;51.252;7.470;2023-02-28T00:12:35;-1.70;99.90
27439;DHT22;14887;51.252;7.470;2023-02-28T00:15:07;-1.70;99.90
27439;DHT22;14887;51.252;7.470;2023-02-28T00:17:33;-1.70;99.90
27439;DHT22;14887;51.252;7.470;2023-02-28T00:19:59;-1.80;99.90
27439;DHT22;14887;51.252;7.470;2023-02-28T00:22:44;-1.70;99.90
27439;DHT22;14887;51.252;7.470;2023-02-28T00:25:13;-1.80;99.90
27439;DHT22;14887;51.252;7.470;2023-02-28T00:27:40;-1.90;99.90
27439;DHT22;14887;51.252;7.470;2023-02-28T00:30:09;-1.90;99.90
27439;DHT22;14887;51.252;7.470;2023-02-28T00:32:35;-2.00;99.90
27439;DHT22;14887;51.252;7.470;2023-02-28T00:35:03;-2.10;99.90
27439;DHT22;14887;51.252;7.470;2023-02-28T00:37:29;-2.10;99.90
27439;DHT22;14887;51.252;7.470;2023-02-28T00:39:54;-2.20;99.90
27439;DHT22;14887;51.252;7.470;2023-02-28T00:42:20;-2.20;99.90
27439;DHT22;14887;51.252;7.470;2023-02-28T00:44:45;-2.20;99.90
27439;DHT22;14887;51.252;7.470;2023-02-28T00:47:11;-2.20;99.90
27439;DHT22;14887;51.252;7.470;2023-02-28T00:49:36;-2.10;1.00
27439;DHT22;14887;51.252;7.470;2023-02-28T00:52:02;-2.20;1.00
27439;DHT22;14887;51.252;7.470;2023-02-28T00:54:28;-2.20;1.00
27439;DHT22;14887;51.252;7.470;2023-02-28T00:56:53;-2.30;3.80
27439;DHT22;14887;51.252;7.470;2023-02-28T00:59:19;-2.30;1.00
27439;DHT22;14887;51.252;7.470;2023-02-28T01:01:46;-2.30;1.00
27439;DHT22;14887;51.252;7.470;2023-02-28T01:04:12;-2.30;1.00
27439;DHT22;14887;51.252;7.470;2023-02-28T01:06:37;-2.40;1.00
27439;DHT22;14887;51.252;7.470;2023-02-28T01:09:04;-2.40;1.00
27439;DHT22;14887;51.252;7.470;2023-02-28T01:11:31;-2.50;13.00
27439;DHT22;14887;51.252;7.470;2023-02-28T01:13:57;-2.50;99.90
27439;DHT22;14887;51.252;7.470;2023-02-28T01:16:23;-2.60;99.90
27439;DHT22;14887;51.252;7.470;2023-02-28T01:18:49;-2.60;99.90
27439;DHT22;14887;51.252;7.470;2023-02-28T01:21:16;-2.80;99.90
27439;DHT22;14887;51.252;7.470;2023-02-28T01:23:43;-2.70;99.90
27439;DHT22;14887;51.252;7.470;2023-02-28T01:26:12;-2.80;99.90
27439;DHT22;14887;51.252;7.470;2023-02-28T01:28:38;-2.90;99.90
27439;DHT22;14887;51.252;7.470;2023-02-28T01:31:03;-2.80;99.90
27439;DHT22;14887;51.252;7.470;2023-02-28T01:33:29;-2.80;99.90
27439;DHT22;14887;51.252;7.470;2023-02-28T01:35:59;-2.90;99.90
27439;DHT22;14887;51.252;7.470;2023-02-28T01:38:25;-2.90;99.90
27439;DHT22;14887;51.252;7.470;2023-02-28T01:40:51;-2.90;99.90
27439;DHT22;14887;51.252;7.470;2023-02-28T01:46:08;-2.90;99.90
27439;DHT22;14887;51.252;7.470;2023-02-28T01:48:38;-2.80;99.90
27439;DHT22;14887;51.252;7.470;2023-02-28T01:51:10;-2.90;99.90
27439;DHT22;14887;51.252;7.470;2023-02-28T01:53:43;-2.90;99.90
27439;DHT22;14887;51.252;7.470;2023-02-28T01:56:12;-2.90;99.90
27439;DHT22;14887;51.252;7.470;2023-02-28T01:58:39;-2.90;99.90
27439;DHT22;14887;51.252;7.470;2023-02-28T02:01:04;-2.90;99.90
27439;DHT22;14887;51.252;7.470;2023-02-28T02:03:31;-2.90;99.90
27439;DHT22;14887;51.252;7.470;2023-02-28T02:05:56;-2.90;99.90
27439;DHT22;14887;51.252;7.470;2023-02-28T02:08:26;-3.00;99.90
27439;DHT22;14887;51.252;7.470;2023-02-28T02:10:57;-3.00;99.90
27439;DHT22;14887;51.252;7.470;2023-02-28T02:18:53;-2.60;1.00
27439;DHT22;14887;51.252;7.470;2023-02-28T02:30:20;-2.80;99.90
27439;DHT22;14887;51.252;7.470;2023-02-28T02:35:43;-2.90;99.90
27439;DHT22;14887;51.252;7.470;2023-02-28T02:38:42;-2.90;99.90
27439;DHT22;14887;51.252;7.470;2023-02-28T02:41:34;-2.90;99.90
27439;DHT22;14887;51.252;7.470;2023-02-28T02:44:15;-3.00;99.90
27439;DHT22;14887;51.252;7.470;2023-02-28T02:46:44;-3.10;1.00
27439;DHT22;14887;51.252;7.470;2023-02-28T02:49:16;-3.10;99.90
27439;DHT22;14887;51.252;7.470;2023-02-28T02:51:44;-3.10;99.90
27439;DHT22;14887;51.252;7.470;2023-02-28T02:54:16;-3.10;99.90
27439;DHT22;14887;51.252;7.470;2023-02-28T02:56:45;-3.20;99.90
27439;DHT22;14887;51.252;7.470;2023-02-28T02:59:13;-3.20;99.90
27439;DHT22;14887;51.252;7.470;2023-02-28T03:01:48;-3.20;99.90
27439;DHT22;14887;51.252;7.470;2023-02-28T03:04:22;-3.30;99.90
27439;DHT22;14887;51.252;7.470;2023-02-28T03:06:48;-3.30;99.90
27439;DHT22;14887;51.252;7.470;2023-02-28T03:09:15;-3.30;99.90
27439;DHT22;14887;51.252;7.470;2023-02-28T03:11:41;-3.30;99.90
27439;DHT22;14887;51.252;7.470;2023-02-28T03:14:40;-3.40;99.90
27439;DHT22;14887;51.252;7.470;2023-02-28T03:17:29;-3.30;99.90
27439;DHT22;14887;51.252;7.470;2023-02-28T03:20:18;-3.30;1.00
27439;DHT22;14887;51.252;7.470;2023-02-28T03:23:01;-3.30;1.00
27439;DHT22;14887;51.252;7.470;2023-02-28T03:31:29;-3.40;1.00
27439;DHT22;14887;51.252;7.470;2023-02-28T03:34:36;-3.50;99.90
27439;DHT22;14887;51.252;7.470;2023-02-28T03:37:14;-3.40;99.90
27439;DHT22;14887;51.252;7.470;2023-02-28T03:39:58;-3.50;99.90
27439;DHT22;14887;51.252;7.470;2023-02-28T03:42:27;-3.50;99.90
27439;DHT22;14887;51.252;7.470;2023-02-28T03:45:00;-3.50;1.00
27439;DHT22;14887;51.252;7.470;2023-02-28T03:47:36;-3.50;99.90
27439;DHT22;14887;51.252;7.470;2023-02-28T03:50:24;-3.50;1.00
27439;DHT22;14887;51.252;7.470;2023-02-28T03:53:04;-3.50;99.90
27439;DHT22;14887;51.252;7.470;2023-02-28T03:55:45;-3.50;99.90
27439;DHT22;14887;51.252;7.470;2023-02-28T03:58:28;-3.60;99.90
27439;DHT22;14887;51.252;7.470;2023-02-28T04:01:00;-3.60;1.00
27439;DHT22;14887;51.252;7.470;2023-02-28T04:03:35;-3.60;99.90
27439;DHT22;14887;51.252;7.470;2023-02-28T04:06:01;-3.60;1.00
27439;DHT22;14887;51.252;7.470;2023-02-28T04:08:27;-3.60;1.00
27439;DHT22;14887;51.252;7.470;2023-02-28T04:11:06;-3.70;1.00
27439;DHT22;14887;51.252;7.470;2023-02-28T04:13:36;-3.70;1.00
27439;DHT22;14887;51.252;7.470;2023-02-28T04:16:05;-3.70;1.00
27439;DHT22;14887;51.252;7.470;2023-02-28T04:18:39;-3.70;1.00
27439;DHT22;14887;51.252;7.470;2023-02-28T04:21:06;-3.70;1.00
27439;DHT22;14887;51.252;7.470;2023-02-28T04:23:32;-3.80;1.00
27439;DHT22;14887;51.252;7.470;2023-02-28T04:25:58;-3.80;1.00
27439;DHT22;14887;51.252;7.470;2023-02-28T04:28:24;-3.80;1.00
27439;DHT22;14887;51.252;7.470;2023-02-28T04:30:57;-3.90;1.00
27439;DHT22;14887;51.252;7.470;2023-02-28T04:33:23;-4.00;1.00
27439;DHT22;14887;51.252;7.470;2023-02-28T04:35:58;-3.90;1.00
27439;DHT22;14887;51.252;7.470;2023-02-28T04:38:24;-3.90;1.00
27439;DHT22;14887;51.252;7.470;2023-02-28T04:40:49;-3.90;1.00
27439;DHT22;14887;51.252;7.470;2023-02-28T04:43:15;-4.00;1.00
27439;DHT22;14887;51.252;7.470;2023-02-28T04:45:40;-4.00;1.00
27439;DHT22;14887;51.252;7.470;2023-02-28T04:48:06;-4.00;1.00
27439;DHT22;14887;51.252;7.470;2023-02-28T04:50:31;-4.10;1.00
27439;DHT22;14887;51.252;7.470;2023-02-28T04:52:57;-4.00;1.00
27439;DHT22;14887;51.252;7.470;2023-02-28T04:55:23;-4.00;1.00
27439;DHT22;14887;51.252;7.470;2023-02-28T04:57:48;-4.00;1.00
27439;DHT22;14887;51.252;7.470;2023-02-28T05:00:15;-4.00;1.00
27439;DHT22;14887;51.252;7.470;2023-02-28T05:02:42;-4.00;1.00
27439;DHT22;14887;51.252;7.470;2023-02-28T05:05:08;-3.90;99.90
27439;DHT22;14887;51.252;7.470;2023-02-28T05:07:33;-4.00;99.90
27439;DHT22;14887;51.252;7.470;2023-02-28T05:09:59;-4.00;1.00
27439;DHT22;14887;51.252;7.470;2023-02-28T05:12:25;-4.00;99.90
27439;DHT22;14887;51.252;7.470;2023-02-28T05:14:50;-4.00;99.90
27439;DHT22;14887;51.252;7.470;2023-02-28T05:17:16;-4.00;1.00
27439;DHT22;14887;51.252;7.470;2023-02-28T05:19:42;-4.10;1.00
27439;DHT22;14887;51.252;7.470;2023-02-28T05:22:13;-4.20;1.00
27439;DHT22;14887;51.252;7.470;2023-02-28T05:24:40;-4.20;1.00
27439;DHT22;14887;51.252;7.470;2023-02-28T05:27:07;-4.20;1.00
27439;DHT22;14887;51.252;7.470;2023-02-28T05:29:33;-4.20;99.90
27439;DHT22;14887;51.252;7.470;2023-02-28T05:31:59;-4.20;99.90
27439;DHT22;14887;51.252;7.470;2023-02-28T05:34:25;-4.20;99.90
27439;DHT22;14887;51.252;7.470;2023-02-28T05:36:50;-4.20;99.90
27439;DHT22;14887;51.252;7.470;2023-02-28T05:39:16;-4.30;99.90
27439;DHT22;14887;51.252;7.470;2023-02-28T05:41:42;-4.30;99.90
27439;DHT22;14887;51.252;7.470;2023-02-28T05:44:09;-4.30;99.90
27439;DHT22;14887;51.252;7.470;2023-02-28T05:46:35;-4.30;99.90
27439;DHT22;14887;51.252;7.470;2023-02-28T05:49:00;-4.30;99.90
27439;DHT22;14887;51.252;7.470;2023-02-28T05:51:26;-4.40;99.90
27439;DHT22;14887;51.252;7.470;2023-02-28T05:53:52;-4.40;99.90
27439;DHT22;14887;51.252;7.470;2023-02-28T05:56:17;-4.20;15.40
27439;DHT22;14887;51.252;7.470;2023-02-28T05:58:43;-4.40;1.00
27439;DHT22;14887;51.252;7.470;2023-02-28T06:03:48;-4.50;1.00
27439;DHT22;14887;51.252;7.470;2023-02-28T06:06:14;-4.40;1.00
27439;DHT22;14887;51.252;7.470;2023-02-28T06:08:39;-4.40;1.00
27439;DHT22;14887;51.252;7.470;2023-02-28T06:11:05;-4.50;1.00
27439;DHT22;14887;51.252;7.470;2023-02-28T06:13:32;-4.50;1.00
27439;DHT22;14887;51.252;7.470;2023-02-28T06:16:00;-4.50;1.00
27439;DHT22;14887;51.252;7.470;2023-02-28T06:18:26;-4.30;99.90
27439;DHT22;14887;51.252;7.470;2023-02-28T06:20:55;-4.30;12.10
27439;DHT22;14887;51.252;7.470;2023-02-28T06:23:21;-4.30;1.00
27439;DHT22;14887;51.252;7.470;2023-02-28T06:25:47;-4.20;1.00
27439;DHT22;14887;51.252;7.470;2023-02-28T06:28:13;-4.20;1.00
27439;DHT22;14887;51.252;7.470;2023-02-28T06:30:39;-4.30;1.00
27439;DHT22;14887;51.252;7.470;2023-02-28T06:33:04;-4.20;1.00
27439;DHT22;14887;51.252;7.470;2023-02-28T06:35:30;-4.20;99.90
27439;DHT22;14887;51.252;7.470;2023-02-28T06:37:56;-4.20;1.00
27439;DHT22;14887;51.252;7.470;2023-02-28T06:40:21;-4.20;99.90
27439;DHT22;14887;51.252;7.470;2023-02-28T06:42:47;-4.10;99.90
27439;DHT22;14887;51.252;7.470;2023-02-28T06:45:12;-4.10;1.00
27439;DHT22;14887;51.252;7.470;2023-02-28T06:47:39;-4.10;1.00
27439;DHT22;14887;51.252;7.470;2023-02-28T06:50:07;-4.10;1.00
27439;DHT22;14887;51.252;7.470;2023-02-28T06:52:33;-4.00;1.00
27439;DHT22;14887;51.252;7.470;2023-02-28T06:55:01;-4.00;99.90
27439;DHT22;14887;51.252;7.470;2023-02-28T06:57:29;-3.90;1.00
27439;DHT22;14887;51.252;7.470;2023-02-28T06:59:57;-3.80;1.00
27439;DHT22;14887;51.252;7.470;2023-02-28T07:02:23;-3.70;1.00
27439;DHT22;14887;51.252;7.470;2023-02-28T07:04:48;-3.60;99.90
27439;DHT22;14887;51.252;7.470;2023-02-28T07:07:14;-3.60;99.90
27439;DHT22;14887;51.252;7.470;2023-02-28T07:09:39;-3.50;91.90
27439;DHT22;14887;51.252;7.470;2023-02-28T07:12:05;-3.40;99.90
27439;DHT22;14887;51.252;7.470;2023-02-28T07:14:30;-3.40;1.00
27439;DHT22;14887;51.252;7.470;2023-02-28T07:16:56;-3.40;99.90
27439;DHT22;14887;51.252;7.470;2023-02-28T07:19:22;-3.30;1.00
27439;DHT22;14887;51.252;7.470;2023-02-28T07:21:47;-3.20;1.00
27439;DHT22;14887;51.252;7.470;2023-02-28T07:24:13;-3.20;1.00
27439;DHT22;14887;51.252;7.470;2023-02-28T07:26:41;-3.30;7.80
27439;DHT22;14887;51.252;7.470;2023-02-28T07:29:06;-3.20;1.00
27439;DHT22;14887;51.252;7.470;2023-02-28T07:31:32;-3.20;1.00
27439;DHT22;14887;51.252;7.470;2023-02-28T07:33:58;-3.20;1.00
27439;DHT22;14887;51.252;7.470;2023-02-28T07:36:23;-3.10;1.00
27439;DHT22;14887;51.252;7.470;2023-02-28T07:38:49;-3.00;1.00
27439;DHT22;14887;51.252;7.470;2023-02-28T07:41:20;-2.90;99.90
27439;DHT22;14887;51.252;7.470;2023-02-28T07:43:46;-2.80;99.90
27439;DHT22;14887;51.252;7.470;2023-02-28T07:46:13;-2.70;99.90
27439;DHT22;14887;51.252;7.470;2023-02-28T07:48:41;-2.60;84.90
27439;DHT22;14887;51.252;7.470;2023-02-28T07:51:06;-2.50;1.00
27439;DHT22;14887;51.252;7.470;2023-02-28T07:53:32;-2.40;1.00
27439;DHT22;14887;51.252;7.470;2023-02-28T07:55:59;-2.30;1.00
27439;DHT22;14887;51.252;7.470;2023-02-28T07:58:26;-1.50;1.00
27439;DHT22;14887;51.252;7.470;2023-02-28T08:00:53;-0.30;99.90
27439;DHT22;14887;51.252;7.470;2023-02-28T08:03:20;0.60;1.00
27439;DHT22;14887;51.252;7.470;2023-02-28T08:05:47;1.40;1.00
27439;DHT22;14887;51.252;7.470;2023-02-28T08:08:14;2.10;1.00
27439;DHT22;14887;51.252;7.470;2023-02-28T08:10:40;2.70;1.00
27439;DHT22;14887;51.252;7.470;2023-02-28T08:13:06;2.70;1.00
27439;DHT22;14887;51.252;7.470;2023-02-28T08:15:32;2.80;1.00
27439;DHT22;14887;51.252;7.470;2023-02-28T08:17:58;2.90;1.00
27439;DHT22;14887;51.252;7.470;2023-02-28T08:20:25;3.10;1.00
27439;DHT22;14887;51.252;7.470;2023-02-28T08:22:51;3.40;99.90
27439;DHT22;14887;51.252;7.470;2023-02-28T08:25:17;3.30;99.90
27439;DHT22;14887;51.252;7.470;2023-02-28T08:27:42;3.50;99.90
27439;DHT22;14887;51.252;7.470;2023-02-28T08:30:11;3.50;99.90
27439;DHT22;14887;51.252;7.470;2023-02-28T08:32:37;3.30;99.90
27439;DHT22;14887;51.252;7.470;2023-02-28T08:35:02;3.50;99.90
27439;DHT22;14887;51.252;7.470;2023-02-28T08:37:28;3.50;99.90
27439;DHT22;14887;51.252;7.470;2023-02-28T08:39:54;3.10;99.90
27439;DHT22;14887;51.252;7.470;2023-02-28T08:42:20;2.70;99.90
27439;DHT22;14887;51.252;7.470;2023-02-28T08:44:45;2.50;99.90
27439;DHT22;14887;51.252;7.470;2023-02-28T08:47:11;3.10;99.90
27439;DHT22;14887;51.252;7.470;2023-02-28T08:49:37;3.50;99.90
27439;DHT22;14887;51.252;7.470;2023-02-28T08:52:03;3.80;99.90
27439;DHT22;14887;51.252;7.470;2023-02-28T08:54:28;3.60;99.90
27439;DHT22;14887;51.252;7.470;2023-02-28T08:56:56;3.50;99.90
27439;DHT22;14887;51.252;7.470;2023-02-28T08:59:22;3.60;99.90
27439;DHT22;14887;51.252;7.470;2023-02-28T09:01:48;3.70;99.90
27439;DHT22;14887;51.252;7.470;2023-02-28T09:04:14;4.00;99.90
27439;DHT22;14887;51.252;7.470;2023-02-28T09:06:39;4.20;99.90
27439;DHT22;14887;51.252;7.470;2023-02-28T09:09:05;4.30;99.90
27439;DHT22;14887;51.252;7.470;2023-02-28T09:11:33;4.10;99.90
27439;DHT22;14887;51.252;7.470;2023-02-28T09:13:59;4.20;99.90
27439;DHT22;14887;51.252;7.470;2023-02-28T09:16:26;4.10;99.90
27439;DHT22;14887;51.252;7.470;2023-02-28T09:18:52;4.30;99.90
27439;DHT22;14887;51.252;7.470;2023-02-28T09:21:18;4.20;99.90
27439;DHT22;14887;51.252;7.470;2023-02-28T09:23:46;4.40;99.90
27439;DHT22;14887;51.252;7.470;2023-02-28T09:26:16;4.60;99.90
27439;DHT22;14887;51.252;7.470;2023-02-28T09:28:42;4.20;99.90
27439;DHT22;14887;51.252;7.470;2023-02-28T09:31:13;4.20;99.90
27439;DHT22;14887;51.252;7.470;2023-02-28T09:33:40;3.90;99.90
27439;DHT22;14887;51.252;7.470;2023-02-28T09:36:06;4.40;99.90
27439;DHT22;14887;51.252;7.470;2023-02-28T09:38:31;4.20;99.90
27439;DHT22;14887;51.252;7.470;2023-02-28T09:41:00;3.40;99.90
27439;DHT22;14887;51.252;7.470;2023-02-28T09:43:34;2.60;99.90
27439;DHT22;14887;51.252;7.470;2023-02-28T09:46:13;2.20;99.90
27439;DHT22;14887;51.252;7.470;2023-02-28T09:48:43;1.40;99.90
27439;DHT22;14887;51.252;7.470;2023-02-28T09:52:03;0.90;99.90
27439;DHT22;14887;51.252;7.470;2023-02-28T09:54:02;0.90;99.90
27439;DHT22;14887;51.252;7.470;2023-02-28T09:56:39;0.90;1.00
27439;DHT22;14887;51.252;7.470;2023-02-28T09:59:11;0.90;1.00
27439;DHT22;14887;51.252;7.470;2023-02-28T10:01:48;0.80;99.90
27439;DHT22;14887;51.252;7.470;2023-02-28T10:06:55;0.90;1.00
27439;DHT22;14887;51.252;7.470;2023-02-28T10:09:26;1.10;1.00
27439;DHT22;14887;51.252;7.470;2023-02-28T10:11:57;1.10;99.90
27439;DHT22;14887;51.252;7.470;2023-02-28T10:14:28;1.20;99.90
27439;DHT22;14887;51.252;7.470;2023-02-28T10:16:58;1.40;99.90
27439;DHT22;14887;51.252;7.470;2023-02-28T10:19:50;1.60;1.00
27439;DHT22;14887;51.252;7.470;2023-02-28T10:25:20;1.50;99.90
27439;DHT22;14887;51.252;7.470;2023-02-28T10:27:46;1.40;99.90
27439;DHT22;14887;51.252;7.470;2023-02-28T10:30:12;1.50;1.00
27439;DHT22;14887;51.252;7.470;2023-02-28T10:32:40;1.60;1.00
27439;DHT22;14887;51.252;7.470;2023-02-28T10:37:41;1.50;99.90
27439;DHT22;14887;51.252;7.470;2023-02-28T10:43:01;2.00;99.90
27439;DHT22;14887;51.252;7.470;2023-02-28T10:45:35;2.00;99.90
27439;DHT22;14887;51.252;7.470;2023-02-28T10:53:28;2.20;99.90
27439;DHT22;14887;51.252;7.470;2023-02-28T11:01:16;2.90;99.90
27439;DHT22;14887;51.252;7.470;2023-02-28T11:03:43;3.50;99.90
27439;DHT22;14887;51.252;7.470;2023-02-28T11:08:55;5.10;99.90
27439;DHT22;14887;51.252;7.470;2023-02-28T11:11:23;5.20;99.90
27439;DHT22;14887;51.252;7.470;2023-02-28T11:13:53;5.20;99.90
27439;DHT22;14887;51.252;7.470;2023-02-28T11:16:20;5.20;99.90
27439;DHT22;14887;51.252;7.470;2023-02-28T11:18:52;5.20;99.90
27439;DHT22;14887;51.252;7.470;2023-02-28T11:21:25;5.10;99.90
27439;DHT22;14887;51.252;7.470;2023-02-28T11:23:59;5.20;99.90
27439;DHT22;14887;51.252;7.470;2023-02-28T11:26:43;5.40;99.90
27439;DHT22;14887;51.252;7.470;2023-02-28T11:29:16;5.30;99.90
27439;DHT22;14887;51.252;7.470;2023-02-28T11:31:42;5.30;99.90
27439;DHT22;14887;51.252;7.470;2023-02-28T11:34:24;4.90;99.90
27439;DHT22;14887;51.252;7.470;2023-02-28T11:36:52;5.00;99.90
27439;DHT22;14887;51.252;7.470;2023-02-28T11:39:19;4.90;99.90
27439;DHT22;14887;51.252;7.470;2023-02-28T11:59:02;5.80;99.90
27439;DHT22;14887;51.252;7.470;2023-02-28T12:04:25;5.70;99.90
27439;DHT22;14887;51.252;7.470;2023-02-28T12:10:16;5.80;99.90
27439;DHT22;14887;51.252;7.470;2023-02-28T12:15:56;6.20;99.90
27439;DHT22;14887;51.252;7.470;2023-02-28T12:19:08;6.10;99.90
27439;DHT22;14887;51.252;7.470;2023-02-28T12:21:58;6.30;99.90
27439;DHT22;14887;51.252;7.470;2023-02-28T12:27:14;6.50;99.90
27439;DHT22;14887;51.252;7.470;2023-02-28T12:29:52;6.70;99.90
27439;DHT22;14887;51.252;7.470;2023-02-28T12:32:30;6.90;99.90
27439;DHT22;14887;51.252;7.470;2023-02-28T12:35:18;7.00;99.90
27439;DHT22;14887;51.252;7.470;2023-02-28T12:38:06;6.70;99.90
27439;DHT22;14887;51.252;7.470;2023-02-28T12:40:53;6.80;99.90
27439;DHT22;14887;51.252;7.470;2023-02-28T12:43:21;6.90;99.90
27439;DHT22;14887;51.252;7.470;2023-02-28T12:45:56;6.90;99.90
27439;DHT22;14887;51.252;7.470;2023-02-28T12:48:50;7.20;99.90
27439;DHT22;14887;51.252;7.470;2023-02-28T12:51:18;6.90;99.90
27439;DHT22;14887;51.252;7.470;2023-02-28T12:56:47;7.40;99.90
27439;DHT22;14887;51.252;7.470;2023-02-28T13:10:08;9.00;99.90
27439;DHT22;14887;51.252;7.470;2023-02-28T13:12:36;9.90;99.90
27439;DHT22;14887;51.252;7.470;2023-02-28T13:15:16;9.70;99.90
27439;DHT22;14887;51.252;7.470;2023-02-28T13:17:48;9.90;99.90
27439;DHT22;14887;51.252;7.470;2023-02-28T13:20:31;9.30;99.90
27439;DHT22;14887;51.252;7.470;2023-02-28T13:22:59;9.70;99.90
27439;DHT22;14887;51.252;7.470;2023-02-28T13:28:13;9.50;99.90
27439;DHT22;14887;51.252;7.470;2023-02-28T13:31:04;9.90;99.90
27439;DHT22;14887;51.252;7.470;2023-02-28T13:33:34;10.10;99.90
27439;DHT22;14887;51.252;7.470;2023-02-28T13:38:50;10.40;99.90
27439;DHT22;14887;51.252;7.470;2023-02-28T13:44:24;11.60;99.90
27439;DHT22;14887;51.252;7.470;2023-02-28T13:52:15;12.60;99.90
27439;DHT22;14887;51.252;7.470;2023-02-28T14:01:03;13.10;99.90
27439;DHT22;14887;51.252;7.470;2023-02-28T14:06:36;14.30;99.90
27439;DHT22;14887;51.252;7.470;2023-02-28T14:09:27;13.80;99.90
27439;DHT22;14887;51.252;7.470;2023-02-28T14:11:54;14.20;99.90
27439;DHT22;14887;51.252;7.470;2023-02-28T14:17:06;14.00;99.90
27439;DHT22;14887;51.252;7.470;2023-02-28T14:19:34;13.90;99.90
27439;DHT22;14887;51.252;7.470;2023-02-28T14:22:21;14.50;99.90
27439;DHT22;14887;51.252;7.470;2023-02-28T14:27:42;13.50;99.90
27439;DHT22;14887;51.252;7.470;2023-02-28T14:38:40;13.80;99.90
27439;DHT22;14887;51.252;7.470;2023-02-28T14:41:16;14.20;99.90
27439;DHT22;14887;51.252;7.470;2023-02-28T14:43:52;14.70;99.90
27439;DHT22;14887;51.252;7.470;2023-02-28T14:46:18;15.30;99.90
27439;DHT22;14887;51.252;7.470;2023-02-28T14:48:49;14.90;99.90
27439;DHT22;14887;51.252;7.470;2023-02-28T14:51:20;15.10;99.90
27439;DHT22;14887;51.252;7.470;2023-02-28T14:53:50;15.00;99.90
27439;DHT22;14887;51.252;7.470;2023-02-28T14:56:24;15.50;99.90
27439;DHT22;14887;51.252;7.470;2023-02-28T14:58:53;16.30;99.90
27439;DHT22;14887;51.252;7.470;2023-02-28T15:01:23;16.10;99.90
27439;DHT22;14887;51.252;7.470;2023-02-28T15:04:06;16.10;99.90
27439;DHT22;14887;51.252;7.470;2023-02-28T15:06:41;15.40;99.90
27439;DHT22;14887;51.252;7.470;2023-02-28T15:11:38;15.10;99.90
27439;DHT22;14887;51.252;7.470;2023-02-28T15:14:04;14.20;99.90
27439;DHT22;14887;51.252;7.470;2023-02-28T15:16:41;14.00;99.90
27439;DHT22;14887;51.252;7.470;2023-02-28T15:19:19;14.20;99.90
27439;DHT22;14887;51.252;7.470;2023-02-28T15:21:50;14.20;99.90
27439;DHT22;14887;51.252;7.470;2023-02-28T15:24:46;13.70;99.90
27439;DHT22;14887;51.252;7.470;2023-02-28T15:27:29;13.50;99.90
27439;DHT22;14887;51.252;7.470;2023-02-28T15:29:59;13.80;99.90
27439;DHT22;14887;51.252;7.470;2023-02-28T15:32:29;14.30;99.90
27439;DHT22;14887;51.252;7.470;2023-02-28T15:34:56;14.10;99.90
27439;DHT22;14887;51.252;7.470;2023-02-28T15:37:41;14.10;99.90
27439;DHT22;14887;51.252;7.470;2023-02-28T15:40:17;13.50;99.90
27439;DHT22;14887;51.252;7.470;2023-02-28T15:45:33;12.50;99.90
27439;DHT22;14887;51.252;7.470;2023-02-28T15:48:05;12.90;99.90
27439;DHT22;14887;51.252;7.470;2023-02-28T15:50:30;12.10;99.90
27439;DHT22;14887;51.252;7.470;2023-02-28T15:52:57;11.10;99.90
27439;DHT22;14887;51.252;7.470;2023-02-28T15:55:26;10.40;99.90
27439;DHT22;14887;51.252;7.470;2023-02-28T15:57:55;10.30;99.90
27439;DHT22;14887;51.252;7.470;2023-02-28T16:00:25;9.70;99.90
27439;DHT22;14887;51.252;7.470;2023-02-28T16:02:51;9.40;99.90
27439;DHT22;14887;51.252;7.470;2023-02-28T16:05:30;9.10;99.90
27439;DHT22;14887;51.252;7.470;2023-02-28T16:08:08;8.40;99.90
27439;DHT22;14887;51.252;7.470;2023-02-28T16:10:36;8.50;99.90
27439;DHT22;14887;51.252;7.470;2023-02-28T16:13:02;8.00;99.90
27439;DHT22;14887;51.252;7.470;2023-02-28T16:15:32;7.50;99.90
27439;DHT22;14887;51.252;7.470;2023-02-28T16:18:00;7.00;99.90
27439;DHT22;14887;51.252;7.470;2023-02-28T16:20:30;6.80;99.90
27439;DHT22;14887;51.252;7.470;2023-02-28T16:22:56;6.70;99.90
27439;DHT22;14887;51.252;7.470;2023-02-28T16:25:35;6.40;99.90
27439;DHT22;14887;51.252;7.470;2023-02-28T16:28:01;5.90;99.90
27439;DHT22;14887;51.252;7.470;2023-02-28T16:30:28;5.60;99.90
27439;DHT22;14887;51.252;7.470;2023-02-28T16:32:56;5.40;99.90
27439;DHT22;14887;51.252;7.470;2023-02-28T16:35:23;5.40;99.90
27439;DHT22;14887;51.252;7.470;2023-02-28T16:37:50;5.10;99.90
27439;DHT22;14887;51.252;7.470;2023-02-28T16:40:18;4.80;99.90
27439;DHT22;14887;51.252;7.470;2023-02-28T16:42:47;4.40;99.90
27439;DHT22;14887;51.252;7.470;2023-02-28T16:45:19;4.00;99.90
27439;DHT22;14887;51.252;7.470;2023-02-28T16:47:46;3.70;99.90
27439;DHT22;14887;51.252;7.470;2023-02-28T16:50:20;3.50;1.00
27439;DHT22;14887;51.252;7.470;2023-02-28T16:52:46;3.00;1.00
27439;DHT22;14887;51.252;7.470;2023-02-28T16:55:12;2.70;1.00
27439;DHT22;14887;51.252;7.470;2023-02-28T16:57:38;2.50;1.00
27439;DHT22;14887;51.252;7.470;2023-02-28T17:00:07;2.30;1.00
27439;DHT22;14887;51.252;7.470;2023-02-28T17:02:33;2.10;1.00
27439;DHT22;14887;51.252;7.470;2023-02-28T17:04:59;2.00;4.80
27439;DHT22;14887;51.252;7.470;2023-02-28T17:07:24;1.90;43.20
27439;DHT22;14887;51.252;7.470;2023-02-28T17:09:50;1.80;99.90
27439;DHT22;14887;51.252;7.470;2023-02-28T17:12:15;1.70;99.90
27439;DHT22;14887;51.252;7.470;2023-02-28T17:14:41;1.70;99.90
27439;DHT22;14887;51.252;7.470;2023-02-28T17:17:07;1.60;99.90
27439;DHT22;14887;51.252;7.470;2023-02-28T17:19:33;1.50;99.90
27439;DHT22;14887;51.252;7.470;2023-02-28T17:22:01;1.40;1.00
27439;DHT22;14887;51.252;7.470;2023-02-28T17:24:28;1.30;1.00
27439;DHT22;14887;51.252;7.470;2023-02-28T17:26:53;1.30;1.00
27439;DHT22;14887;51.252;7.470;2023-02-28T17:29:20;1.20;1.00
27439;DHT22;14887;51.252;7.470;2023-02-28T17:31:46;1.20;1.00
27439;DHT22;14887;51.252;7.470;2023-02-28T17:34:13;1.00;1.00
27439;DHT22;14887;51.252;7.470;2023-02-28T17:36:44;1.00;1.00
27439;DHT22;14887;51.252;7.470;2023-02-28T17:39:12;0.90;72.40
27439;DHT22;14887;51.252;7.470;2023-02-28T17:41:40;0.80;99.90
27439;DHT22;14887;51.252;7.470;2023-02-28T17:44:06;0.80;1.00
27439;DHT22;14887;51.252;7.470;2023-02-28T17:46:32;0.80;99.90
27439;DHT22;14887;51.252;7.470;2023-02-28T17:48:57;0.80;1.00
27439;DHT22;14887;51.252;7.470;2023-02-28T17:51:24;0.70;1.00
27439;DHT22;14887;51.252;7.470;2023-02-28T17:53:49;0.60;1.00
27439;DHT22;14887;51.252;7.470;2023-02-28T17:56:26;0.60;1.00
27439;DHT22;14887;51.252;7.470;2023-02-28T17:58:53;0.50;1.00
27439;DHT22;14887;51.252;7.470;2023-02-28T18:01:20;0.50;1.00
27439;DHT22;14887;51.252;7.470;2023-02-28T18:03:46;0.50;1.00
27439;DHT22;14887;51.252;7.470;2023-02-28T18:06:27;0.50;1.00
27439;DHT22;14887;51.252;7.470;2023-02-28T18:08:54;0.50;1.00
27439;DHT22;14887;51.252;7.470;2023-02-28T18:11:21;0.40;1.00
27439;DHT22;14887;51.252;7.470;2023-02-28T18:13:52;0.40;24.50
27439;DHT22;14887;51.252;7.470;2023-02-28T18:16:19;0.40;1.00